Mansfield Lahm Regional Airport Mansfield US
ICAO: KMFD
IATA: MFD
Category: Medium
Scheduled Services: No

Elevation: 1297 ft
TransAlt. 18000 ft.

Airport Communications:
APP/DEP:124.2
ATIS:125.3
CTAF:119.8
GND:121.8
HERC COMD POST:29.75
CLEVELAND RDO:122.6
TWR:119.8
UNICOM:122.95

KMFD Zoom In..

Runways:

(A) RW 05 length 6800 ft width 150 ft
---- / hdg 53

(B) RW 14 length 9001 ft width 150 ft
---- / hdg 143

(C) RW 23 length 6800 ft width 150 ft
---- / hdg 233

(D) RW 32 length 9001 ft width 150 ft
ILS 110.50 / hdg 323

Location; KMFD
Day. 23 / Time. 07.59 Zulu
* Altimeter: 29.84
* Temperature: 17° c. 62.6°f.
* Wind from: 350° Speed 05 kn.
Dewpoint: 17° c.
Visibility: 1 m.
Clouds: Overcast 1000 ft.
Conditions: Rain.Conditions: Mist.

KMFD 230759Z AUTO 35005KT 1 3/4SM RA BR OVC010 17/17 A2984 RMK AO2 P0003 T01720172


Wind From 350°
Speed 05 kn.

 
 
jpsmedia.com for Web Design worldairports.se 2018   terms of use